sensor_id;sensor_type;location;lat;lon;timestamp;temperature;humidity
32366;DHT22;18837;46.832;16.838;2023-03-02T00:02:22;5.10;95.20
32366;DHT22;18837;46.832;16.838;2023-03-02T00:04:52;5.10;94.70
32366;DHT22;18837;46.832;16.838;2023-03-02T00:07:26;5.10;94.70
32366;DHT22;18837;46.832;16.838;2023-03-02T00:09:53;5.10;94.80
32366;DHT22;18837;46.832;16.838;2023-03-02T00:12:19;5.10;94.70
32366;DHT22;18837;46.832;16.838;2023-03-02T00:14:45;5.10;94.60
32366;DHT22;18837;46.832;16.838;2023-03-02T00:17:25;5.10;94.60
32366;DHT22;18837;46.832;16.838;2023-03-02T00:19:54;5.10;95.10
32366;DHT22;18837;46.832;16.838;2023-03-02T00:22:35;5.10;94.70
32366;DHT22;18837;46.832;16.838;2023-03-02T00:25:02;5.10;94.60
32366;DHT22;18837;46.832;16.838;2023-03-02T00:27:28;5.10;94.70
32366;DHT22;18837;46.832;16.838;2023-03-02T00:29:57;5.10;94.50
32366;DHT22;18837;46.832;16.838;2023-03-02T00:32:39;5.10;94.70
32366;DHT22;18837;46.832;16.838;2023-03-02T00:35:26;5.10;94.90
32366;DHT22;18837;46.832;16.838;2023-03-02T00:37:52;5.10;95.20
32366;DHT22;18837;46.832;16.838;2023-03-02T00:40:18;5.10;94.50
32366;DHT22;18837;46.832;16.838;2023-03-02T00:42:44;5.10;94.50
32366;DHT22;18837;46.832;16.838;2023-03-02T00:45:10;5.10;94.60
32366;DHT22;18837;46.832;16.838;2023-03-02T00:47:36;5.10;94.70
32366;DHT22;18837;46.832;16.838;2023-03-02T00:50:05;5.10;94.80
32366;DHT22;18837;46.832;16.838;2023-03-02T00:52:39;5.10;94.80
32366;DHT22;18837;46.832;16.838;2023-03-02T00:55:05;5.10;94.70
32366;DHT22;18837;46.832;16.838;2023-03-02T00:57:31;5.10;94.80
32366;DHT22;18837;46.832;16.838;2023-03-02T00:59:56;5.10;94.70
32366;DHT22;18837;46.832;16.838;2023-03-02T01:02:22;5.10;94.80
32366;DHT22;18837;46.832;16.838;2023-03-02T01:04:48;5.10;94.70
32366;DHT22;18837;46.832;16.838;2023-03-02T01:07:35;5.10;94.70
32366;DHT22;18837;46.832;16.838;2023-03-02T01:10:16;5.10;95.30
32366;DHT22;18837;46.832;16.838;2023-03-02T01:12:42;5.10;94.80
32366;DHT22;18837;46.832;16.838;2023-03-02T01:15:09;5.10;94.70
32366;DHT22;18837;46.832;16.838;2023-03-02T01:17:35;5.10;94.80
32366;DHT22;18837;46.832;16.838;2023-03-02T01:20:01;5.10;94.80
32366;DHT22;18837;46.832;16.838;2023-03-02T01:22:29;5.10;94.70
32366;DHT22;18837;46.832;16.838;2023-03-02T01:25:22;5.10;94.70
32366;DHT22;18837;46.832;16.838;2023-03-02T01:27:48;5.10;95.30
32366;DHT22;18837;46.832;16.838;2023-03-02T01:30:14;5.10;94.70
32366;DHT22;18837;46.832;16.838;2023-03-02T01:32:40;5.10;94.70
32366;DHT22;18837;46.832;16.838;2023-03-02T01:35:05;5.10;94.70
32366;DHT22;18837;46.832;16.838;2023-03-02T01:37:31;5.10;94.80
32366;DHT22;18837;46.832;16.838;2023-03-02T01:39:57;5.10;94.80
32366;DHT22;18837;46.832;16.838;2023-03-02T01:42:50;5.10;94.80
32366;DHT22;18837;46.832;16.838;2023-03-02T01:48:41;5.10;95.30
32366;DHT22;18837;46.832;16.838;2023-03-02T01:51:10;5.10;95.30
32366;DHT22;18837;46.832;16.838;2023-03-02T01:53:39;5.10;94.70
32366;DHT22;18837;46.832;16.838;2023-03-02T01:56:15;5.10;94.70
32366;DHT22;18837;46.832;16.838;2023-03-02T01:58:42;5.10;95.20
32366;DHT22;18837;46.832;16.838;2023-03-02T02:01:11;5.10;94.70
32366;DHT22;18837;46.832;16.838;2023-03-02T02:03:45;5.10;95.10
32366;DHT22;18837;46.832;16.838;2023-03-02T02:08:57;5.10;94.70
32366;DHT22;18837;46.832;16.838;2023-03-02T02:11:25;5.10;94.70
32366;DHT22;18837;46.832;16.838;2023-03-02T02:13:57;5.10;94.80
32366;DHT22;18837;46.832;16.838;2023-03-02T02:16:42;5.10;95.20
32366;DHT22;18837;46.832;16.838;2023-03-02T02:28:06;5.10;95.30
32366;DHT22;18837;46.832;16.838;2023-03-02T02:30:35;5.10;94.80
32366;DHT22;18837;46.832;16.838;2023-03-02T02:33:03;5.10;94.70
32366;DHT22;18837;46.832;16.838;2023-03-02T02:35:35;5.10;94.80
32366;DHT22;18837;46.832;16.838;2023-03-02T02:38:05;5.10;94.80
32366;DHT22;18837;46.832;16.838;2023-03-02T02:41:04;5.10;94.80
32366;DHT22;18837;46.832;16.838;2023-03-02T02:43:32;5.10;94.70
32366;DHT22;18837;46.832;16.838;2023-03-02T02:45:58;5.10;94.80
32366;DHT22;18837;46.832;16.838;2023-03-02T02:48:26;5.10;94.80
32366;DHT22;18837;46.832;16.838;2023-03-02T02:51:18;5.10;94.70
32366;DHT22;18837;46.832;16.838;2023-03-02T02:54:05;5.10;94.80
32366;DHT22;18837;46.832;16.838;2023-03-02T02:56:35;5.10;95.40
32366;DHT22;18837;46.832;16.838;2023-03-02T02:59:06;5.10;94.70
32366;DHT22;18837;46.832;16.838;2023-03-02T03:01:32;5.10;94.80
32366;DHT22;18837;46.832;16.838;2023-03-02T03:04:03;5.10;94.70
32366;DHT22;18837;46.832;16.838;2023-03-02T03:06:32;5.10;94.80
32366;DHT22;18837;46.832;16.838;2023-03-02T03:09:15;5.10;94.80
32366;DHT22;18837;46.832;16.838;2023-03-02T03:11:44;5.10;94.80
32366;DHT22;18837;46.832;16.838;2023-03-02T03:14:17;5.10;94.80
32366;DHT22;18837;46.832;16.838;2023-03-02T03:16:45;5.10;94.80
32366;DHT22;18837;46.832;16.838;2023-03-02T03:19:22;5.10;94.70
32366;DHT22;18837;46.832;16.838;2023-03-02T03:21:50;5.10;95.10
32366;DHT22;18837;46.832;16.838;2023-03-02T03:24:34;5.00;94.70
32366;DHT22;18837;46.832;16.838;2023-03-02T03:27:18;5.10;94.90
32366;DHT22;18837;46.832;16.838;2023-03-02T03:29:51;5.10;94.90
32366;DHT22;18837;46.832;16.838;2023-03-02T03:32:18;5.10;94.90
32366;DHT22;18837;46.832;16.838;2023-03-02T03:34:44;5.00;94.80
32366;DHT22;18837;46.832;16.838;2023-03-02T03:37:14;5.00;94.80
32366;DHT22;18837;46.832;16.838;2023-03-02T03:39:40;5.10;94.90
32366;DHT22;18837;46.832;16.838;2023-03-02T03:42:06;5.00;94.90
32366;DHT22;18837;46.832;16.838;2023-03-02T03:44:38;5.00;94.80
32366;DHT22;18837;46.832;16.838;2023-03-02T03:47:04;5.10;95.00
32366;DHT22;18837;46.832;16.838;2023-03-02T03:49:30;5.00;94.80
32366;DHT22;18837;46.832;16.838;2023-03-02T03:51:56;5.10;94.90
32366;DHT22;18837;46.832;16.838;2023-03-02T03:54:22;5.00;94.80
32366;DHT22;18837;46.832;16.838;2023-03-02T03:56:49;5.00;94.70
32366;DHT22;18837;46.832;16.838;2023-03-02T03:59:46;5.00;94.70
32366;DHT22;18837;46.832;16.838;2023-03-02T04:02:33;5.10;95.50
32366;DHT22;18837;46.832;16.838;2023-03-02T04:04:59;5.00;95.50
32366;DHT22;18837;46.832;16.838;2023-03-02T04:07:31;5.00;94.80
32366;DHT22;18837;46.832;16.838;2023-03-02T04:09:58;5.10;94.90
32366;DHT22;18837;46.832;16.838;2023-03-02T04:12:34;5.00;95.30
32366;DHT22;18837;46.832;16.838;2023-03-02T04:15:01;5.10;94.90
32366;DHT22;18837;46.832;16.838;2023-03-02T04:17:43;5.00;94.80
32366;DHT22;18837;46.832;16.838;2023-03-02T04:20:13;5.00;94.70
32366;DHT22;18837;46.832;16.838;2023-03-02T04:22:46;5.00;95.30
32366;DHT22;18837;46.832;16.838;2023-03-02T04:25:14;5.00;94.80
32366;DHT22;18837;46.832;16.838;2023-03-02T04:27:45;5.00;94.90
32366;DHT22;18837;46.832;16.838;2023-03-02T04:30:12;5.00;94.80
32366;DHT22;18837;46.832;16.838;2023-03-02T04:32:38;5.00;94.80
32366;DHT22;18837;46.832;16.838;2023-03-02T04:35:22;5.00;94.90
32366;DHT22;18837;46.832;16.838;2023-03-02T04:37:57;5.00;94.80
32366;DHT22;18837;46.832;16.838;2023-03-02T04:40:23;5.00;94.90
32366;DHT22;18837;46.832;16.838;2023-03-02T04:42:49;5.00;94.90
32366;DHT22;18837;46.832;16.838;2023-03-02T04:45:15;5.00;94.80
32366;DHT22;18837;46.832;16.838;2023-03-02T04:47:41;5.00;94.90
32366;DHT22;18837;46.832;16.838;2023-03-02T04:50:08;5.00;94.90
32366;DHT22;18837;46.832;16.838;2023-03-02T04:52:50;5.00;95.00
32366;DHT22;18837;46.832;16.838;2023-03-02T04:55:19;5.00;94.80
32366;DHT22;18837;46.832;16.838;2023-03-02T04:57:46;5.00;94.70
32366;DHT22;18837;46.832;16.838;2023-03-02T05:00:12;5.00;94.90
32366;DHT22;18837;46.832;16.838;2023-03-02T05:02:40;5.00;94.90
32366;DHT22;18837;46.832;16.838;2023-03-02T05:05:06;5.00;94.80
32366;DHT22;18837;46.832;16.838;2023-03-02T05:07:52;5.00;95.00
32366;DHT22;18837;46.832;16.838;2023-03-02T05:10:37;5.00;95.50
32366;DHT22;18837;46.832;16.838;2023-03-02T05:13:08;5.00;95.40
32366;DHT22;18837;46.832;16.838;2023-03-02T05:15:36;5.00;94.90
32366;DHT22;18837;46.832;16.838;2023-03-02T05:18:05;5.00;94.80
32366;DHT22;18837;46.832;16.838;2023-03-02T05:20:31;5.00;94.80
32366;DHT22;18837;46.832;16.838;2023-03-02T05:23:00;5.00;95.00
32366;DHT22;18837;46.832;16.838;2023-03-02T05:25:28;5.00;94.90
32366;DHT22;18837;46.832;16.838;2023-03-02T05:28:03;5.00;94.90
32366;DHT22;18837;46.832;16.838;2023-03-02T05:30:29;5.00;94.90
32366;DHT22;18837;46.832;16.838;2023-03-02T05:32:57;5.00;94.90
32366;DHT22;18837;46.832;16.838;2023-03-02T05:35:23;5.00;94.90
32366;DHT22;18837;46.832;16.838;2023-03-02T05:37:49;5.00;94.90
32366;DHT22;18837;46.832;16.838;2023-03-02T05:40:17;5.00;94.90
32366;DHT22;18837;46.832;16.838;2023-03-02T05:43:08;5.00;94.90
32366;DHT22;18837;46.832;16.838;2023-03-02T05:45:56;5.00;95.50
32366;DHT22;18837;46.832;16.838;2023-03-02T05:48:29;5.00;95.60
32366;DHT22;18837;46.832;16.838;2023-03-02T05:50:55;5.00;94.90
32366;DHT22;18837;46.832;16.838;2023-03-02T05:53:22;5.00;94.90
32366;DHT22;18837;46.832;16.838;2023-03-02T05:55:48;5.00;94.90
32366;DHT22;18837;46.832;16.838;2023-03-02T05:58:16;5.00;94.90
32366;DHT22;18837;46.832;16.838;2023-03-02T06:00:43;5.00;94.90
32366;DHT22;18837;46.832;16.838;2023-03-02T06:03:09;5.00;94.90
32366;DHT22;18837;46.832;16.838;2023-03-02T06:05:35;5.00;95.00
32366;DHT22;18837;46.832;16.838;2023-03-02T06:08:01;5.00;94.90
32366;DHT22;18837;46.832;16.838;2023-03-02T06:10:27;5.00;94.90
32366;DHT22;18837;46.832;16.838;2023-03-02T06:12:53;5.00;95.10
32366;DHT22;18837;46.832;16.838;2023-03-02T06:15:19;5.00;94.90
32366;DHT22;18837;46.832;16.838;2023-03-02T06:17:45;5.00;94.80
32366;DHT22;18837;46.832;16.838;2023-03-02T06:20:11;5.00;95.00
32366;DHT22;18837;46.832;16.838;2023-03-02T06:22:43;5.00;94.90
32366;DHT22;18837;46.832;16.838;2023-03-02T06:25:16;5.00;94.80
32366;DHT22;18837;46.832;16.838;2023-03-02T06:27:43;5.00;94.90
32366;DHT22;18837;46.832;16.838;2023-03-02T06:30:17;5.00;94.90
32366;DHT22;18837;46.832;16.838;2023-03-02T06:32:54;5.00;94.90
32366;DHT22;18837;46.832;16.838;2023-03-02T06:35:20;5.00;94.90
32366;DHT22;18837;46.832;16.838;2023-03-02T06:37:45;5.00;94.90
32366;DHT22;18837;46.832;16.838;2023-03-02T06:40:12;5.00;94.80
32366;DHT22;18837;46.832;16.838;2023-03-02T06:42:39;5.00;94.90
32366;DHT22;18837;46.832;16.838;2023-03-02T06:45:05;5.00;94.80
32366;DHT22;18837;46.832;16.838;2023-03-02T06:48:00;5.00;95.10
32366;DHT22;18837;46.832;16.838;2023-03-02T06:51:00;5.00;95.50
32366;DHT22;18837;46.832;16.838;2023-03-02T06:53:26;5.10;95.40
32366;DHT22;18837;46.832;16.838;2023-03-02T06:55:52;5.10;94.80
32366;DHT22;18837;46.832;16.838;2023-03-02T06:58:17;5.10;94.90
32366;DHT22;18837;46.832;16.838;2023-03-02T07:00:44;5.10;95.00
32366;DHT22;18837;46.832;16.838;2023-03-02T07:03:09;5.10;94.90
32366;DHT22;18837;46.832;16.838;2023-03-02T07:05:54;5.10;94.80
32366;DHT22;18837;46.832;16.838;2023-03-02T07:08:20;5.10;94.80
32366;DHT22;18837;46.832;16.838;2023-03-02T07:10:45;5.10;94.80
32366;DHT22;18837;46.832;16.838;2023-03-02T07:13:11;5.10;94.80
32366;DHT22;18837;46.832;16.838;2023-03-02T07:15:40;5.10;94.80
32366;DHT22;18837;46.832;16.838;2023-03-02T07:18:06;5.10;94.80
32366;DHT22;18837;46.832;16.838;2023-03-02T07:20:31;5.10;94.90
32366;DHT22;18837;46.832;16.838;2023-03-02T07:26:26;5.20;95.50
32366;DHT22;18837;46.832;16.838;2023-03-02T07:28:51;5.20;94.80
32366;DHT22;18837;46.832;16.838;2023-03-02T07:31:17;5.20;94.80
32366;DHT22;18837;46.832;16.838;2023-03-02T07:33:43;5.20;94.90
32366;DHT22;18837;46.832;16.838;2023-03-02T07:36:09;5.20;94.80
32366;DHT22;18837;46.832;16.838;2023-03-02T07:38:35;5.20;94.90
32366;DHT22;18837;46.832;16.838;2023-03-02T07:41:17;5.20;94.80
32366;DHT22;18837;46.832;16.838;2023-03-02T07:43:43;5.20;94.90
32366;DHT22;18837;46.832;16.838;2023-03-02T07:46:09;5.20;94.80
32366;DHT22;18837;46.832;16.838;2023-03-02T07:48:35;5.20;94.70
32366;DHT22;18837;46.832;16.838;2023-03-02T07:51:02;5.20;94.80
32366;DHT22;18837;46.832;16.838;2023-03-02T07:53:29;5.20;94.80
32366;DHT22;18837;46.832;16.838;2023-03-02T07:56:15;5.20;94.70
32366;DHT22;18837;46.832;16.838;2023-03-02T08:01:51;5.30;95.30
32366;DHT22;18837;46.832;16.838;2023-03-02T08:04:17;5.30;94.60
32366;DHT22;18837;46.832;16.838;2023-03-02T08:06:42;5.30;94.50
32366;DHT22;18837;46.832;16.838;2023-03-02T08:09:08;5.30;94.30
32366;DHT22;18837;46.832;16.838;2023-03-02T08:11:34;5.30;94.30
32366;DHT22;18837;46.832;16.838;2023-03-02T08:14:00;5.30;94.20
32366;DHT22;18837;46.832;16.838;2023-03-02T08:16:35;5.30;94.00
32366;DHT22;18837;46.832;16.838;2023-03-02T08:19:00;5.40;94.00
32366;DHT22;18837;46.832;16.838;2023-03-02T08:21:28;5.40;93.90
32366;DHT22;18837;46.832;16.838;2023-03-02T08:23:54;5.40;93.80
32366;DHT22;18837;46.832;16.838;2023-03-02T08:26:20;5.40;93.60
32366;DHT22;18837;46.832;16.838;2023-03-02T08:28:46;5.40;93.50
32366;DHT22;18837;46.832;16.838;2023-03-02T08:31:46;5.40;93.60
32366;DHT22;18837;46.832;16.838;2023-03-02T08:34:42;5.40;94.40
32366;DHT22;18837;46.832;16.838;2023-03-02T08:37:08;5.50;94.50
32366;DHT22;18837;46.832;16.838;2023-03-02T08:39:34;5.50;93.60
32366;DHT22;18837;46.832;16.838;2023-03-02T08:41:59;5.50;93.50
32366;DHT22;18837;46.832;16.838;2023-03-02T08:44:25;5.50;93.70
32366;DHT22;18837;46.832;16.838;2023-03-02T08:46:51;5.50;93.50
32366;DHT22;18837;46.832;16.838;2023-03-02T08:52:11;5.50;93.60
32366;DHT22;18837;46.832;16.838;2023-03-02T08:54:39;5.50;93.00
32366;DHT22;18837;46.832;16.838;2023-03-02T08:57:09;5.50;93.10
32366;DHT22;18837;46.832;16.838;2023-03-02T08:59:35;5.50;93.10
32366;DHT22;18837;46.832;16.838;2023-03-02T09:02:01;5.50;93.10
32366;DHT22;18837;46.832;16.838;2023-03-02T09:04:27;5.50;93.10
32366;DHT22;18837;46.832;16.838;2023-03-02T09:07:24;5.60;93.30
32366;DHT22;18837;46.832;16.838;2023-03-02T09:10:48;5.60;94.00
32366;DHT22;18837;46.832;16.838;2023-03-02T09:13:14;5.60;94.10
32366;DHT22;18837;46.832;16.838;2023-03-02T09:15:40;5.60;93.30
32366;DHT22;18837;46.832;16.838;2023-03-02T09:18:05;5.50;93.30
32366;DHT22;18837;46.832;16.838;2023-03-02T09:20:32;5.50;93.20
32366;DHT22;18837;46.832;16.838;2023-03-02T09:22:58;5.60;93.20
32366;DHT22;18837;46.832;16.838;2023-03-02T09:25:44;5.60;93.20
32366;DHT22;18837;46.832;16.838;2023-03-02T09:28:10;5.60;94.10
32366;DHT22;18837;46.832;16.838;2023-03-02T09:30:36;5.60;93.10
32366;DHT22;18837;46.832;16.838;2023-03-02T09:33:02;5.60;93.00
32366;DHT22;18837;46.832;16.838;2023-03-02T09:35:28;5.60;93.20
32366;DHT22;18837;46.832;16.838;2023-03-02T09:37:54;5.60;93.20
32366;DHT22;18837;46.832;16.838;2023-03-02T09:47:13;5.60;94.20
32366;DHT22;18837;46.832;16.838;2023-03-02T09:49:54;5.70;93.30
32366;DHT22;18837;46.832;16.838;2023-03-02T09:52:35;5.60;93.20
32366;DHT22;18837;46.832;16.838;2023-03-02T09:55:16;5.70;93.60
32366;DHT22;18837;46.832;16.838;2023-03-02T09:57:43;5.70;93.90
32366;DHT22;18837;46.832;16.838;2023-03-02T10:00:36;5.70;93.30
32366;DHT22;18837;46.832;16.838;2023-03-02T10:03:15;5.70;94.10
32366;DHT22;18837;46.832;16.838;2023-03-02T10:05:53;5.70;94.10
32366;DHT22;18837;46.832;16.838;2023-03-02T10:08:24;5.70;93.00
32366;DHT22;18837;46.832;16.838;2023-03-02T10:13:46;5.70;92.90
32366;DHT22;18837;46.832;16.838;2023-03-02T10:20:10;5.70;94.10
32366;DHT22;18837;46.832;16.838;2023-03-02T10:22:40;5.70;93.00
32366;DHT22;18837;46.832;16.838;2023-03-02T10:25:46;5.70;92.50
32366;DHT22;18837;46.832;16.838;2023-03-02T10:28:25;5.70;92.60
32366;DHT22;18837;46.832;16.838;2023-03-02T10:31:17;5.70;92.40
32366;DHT22;18837;46.832;16.838;2023-03-02T10:34:01;5.70;92.60
32366;DHT22;18837;46.832;16.838;2023-03-02T10:36:34;5.70;92.80
32366;DHT22;18837;46.832;16.838;2023-03-02T10:39:05;5.70;92.40
32366;DHT22;18837;46.832;16.838;2023-03-02T10:42:25;5.70;92.60
32366;DHT22;18837;46.832;16.838;2023-03-02T10:44:49;5.70;93.70
32366;DHT22;18837;46.832;16.838;2023-03-02T10:47:28;5.70;92.70
32366;DHT22;18837;46.832;16.838;2023-03-02T10:50:28;5.70;92.90
32366;DHT22;18837;46.832;16.838;2023-03-02T10:53:21;5.70;94.10
32366;DHT22;18837;46.832;16.838;2023-03-02T10:55:49;5.70;92.80
32366;DHT22;18837;46.832;16.838;2023-03-02T10:58:28;5.70;92.70
32366;DHT22;18837;46.832;16.838;2023-03-02T11:01:03;5.70;93.00
32366;DHT22;18837;46.832;16.838;2023-03-02T11:03:30;5.80;93.70
32366;DHT22;18837;46.832;16.838;2023-03-02T11:06:08;5.80;92.90
32366;DHT22;18837;46.832;16.838;2023-03-02T11:08:40;5.80;92.90
32366;DHT22;18837;46.832;16.838;2023-03-02T11:11:22;5.80;93.10
32366;DHT22;18837;46.832;16.838;2023-03-02T11:13:48;5.80;93.20
32366;DHT22;18837;46.832;16.838;2023-03-02T11:18:57;5.80;93.50
32366;DHT22;18837;46.832;16.838;2023-03-02T11:21:29;5.80;93.30
32366;DHT22;18837;46.832;16.838;2023-03-02T11:27:25;5.80;94.20
32366;DHT22;18837;46.832;16.838;2023-03-02T11:30:06;5.80;94.00
32366;DHT22;18837;46.832;16.838;2023-03-02T11:32:57;5.80;93.30
32366;DHT22;18837;46.832;16.838;2023-03-02T11:37:55;5.90;93.20
32366;DHT22;18837;46.832;16.838;2023-03-02T11:42:59;5.90;93.20
32366;DHT22;18837;46.832;16.838;2023-03-02T11:45:31;5.90;93.20
32366;DHT22;18837;46.832;16.838;2023-03-02T11:50:57;5.90;94.30
32366;DHT22;18837;46.832;16.838;2023-03-02T11:56:10;6.00;93.40
32366;DHT22;18837;46.832;16.838;2023-03-02T11:58:53;5.90;93.20
32366;DHT22;18837;46.832;16.838;2023-03-02T12:01:23;6.00;93.20
32366;DHT22;18837;46.832;16.838;2023-03-02T12:03:50;6.00;93.30
32366;DHT22;18837;46.832;16.838;2023-03-02T12:08:51;6.00;94.20
32366;DHT22;18837;46.832;16.838;2023-03-02T12:20:21;6.00;94.40
32366;DHT22;18837;46.832;16.838;2023-03-02T12:22:39;6.00;94.30
32366;DHT22;18837;46.832;16.838;2023-03-02T12:27:50;6.00;93.50
32366;DHT22;18837;46.832;16.838;2023-03-02T12:33:22;6.00;93.90
32366;DHT22;18837;46.832;16.838;2023-03-02T12:35:49;6.00;94.40
32366;DHT22;18837;46.832;16.838;2023-03-02T12:38:31;6.10;93.60
32366;DHT22;18837;46.832;16.838;2023-03-02T12:41:26;6.10;93.60
32366;DHT22;18837;46.832;16.838;2023-03-02T12:46:44;6.10;94.30
32366;DHT22;18837;46.832;16.838;2023-03-02T12:53:15;6.10;94.30
32366;DHT22;18837;46.832;16.838;2023-03-02T12:55:42;6.10;93.70
32366;DHT22;18837;46.832;16.838;2023-03-02T12:58:22;6.10;93.60
32366;DHT22;18837;46.832;16.838;2023-03-02T13:00:56;6.10;93.50
32366;DHT22;18837;46.832;16.838;2023-03-02T13:03:23;6.10;94.20
32366;DHT22;18837;46.832;16.838;2023-03-02T13:05:58;6.10;93.70
32366;DHT22;18837;46.832;16.838;2023-03-02T13:08:36;6.10;93.70
32366;DHT22;18837;46.832;16.838;2023-03-02T13:11:03;6.10;93.90
32366;DHT22;18837;46.832;16.838;2023-03-02T13:13:36;6.10;93.80
32366;DHT22;18837;46.832;16.838;2023-03-02T13:16:05;6.10;94.60
32366;DHT22;18837;46.832;16.838;2023-03-02T13:18:33;6.10;93.90
32366;DHT22;18837;46.832;16.838;2023-03-02T13:21:02;6.10;93.80
32366;DHT22;18837;46.832;16.838;2023-03-02T13:27:05;6.10;94.50
32366;DHT22;18837;46.832;16.838;2023-03-02T13:29:31;6.10;93.70
32366;DHT22;18837;46.832;16.838;2023-03-02T13:32:14;6.10;93.90
32366;DHT22;18837;46.832;16.838;2023-03-02T13:34:45;6.10;94.70
32366;DHT22;18837;46.832;16.838;2023-03-02T13:37:36;6.10;93.90
32366;DHT22;18837;46.832;16.838;2023-03-02T13:43:15;6.10;94.90
32366;DHT22;18837;46.832;16.838;2023-03-02T13:45:58;6.10;93.80
32366;DHT22;18837;46.832;16.838;2023-03-02T13:48:25;6.20;93.70
32366;DHT22;18837;46.832;16.838;2023-03-02T13:51:16;6.20;93.80
32366;DHT22;18837;46.832;16.838;2023-03-02T13:56:48;6.10;94.70
32366;DHT22;18837;46.832;16.838;2023-03-02T13:59:39;6.20;94.70
32366;DHT22;18837;46.832;16.838;2023-03-02T14:02:34;6.20;94.80
32366;DHT22;18837;46.832;16.838;2023-03-02T14:05:00;6.20;93.90
32366;DHT22;18837;46.832;16.838;2023-03-02T14:07:26;6.10;94.00
32366;DHT22;18837;46.832;16.838;2023-03-02T14:09:51;6.20;93.80
32366;DHT22;18837;46.832;16.838;2023-03-02T14:12:28;6.20;93.90
32366;DHT22;18837;46.832;16.838;2023-03-02T14:14:57;6.20;93.90
32366;DHT22;18837;46.832;16.838;2023-03-02T14:17:43;6.20;93.90
32366;DHT22;18837;46.832;16.838;2023-03-02T14:20:11;6.10;93.80
32366;DHT22;18837;46.832;16.838;2023-03-02T14:22:37;6.10;94.30
32366;DHT22;18837;46.832;16.838;2023-03-02T14:25:03;6.00;94.00
32366;DHT22;18837;46.832;16.838;2023-03-02T14:27:30;6.20;94.20
32366;DHT22;18837;46.832;16.838;2023-03-02T14:29:56;6.20;94.00
32366;DHT22;18837;46.832;16.838;2023-03-02T14:32:50;6.20;94.00
32366;DHT22;18837;46.832;16.838;2023-03-02T14:36:26;6.20;94.90
32366;DHT22;18837;46.832;16.838;2023-03-02T14:38:55;6.20;94.90
32366;DHT22;18837;46.832;16.838;2023-03-02T14:41:23;6.20;93.90
32366;DHT22;18837;46.832;16.838;2023-03-02T14:43:49;6.20;94.00
32366;DHT22;18837;46.832;16.838;2023-03-02T14:46:15;6.20;94.00
32366;DHT22;18837;46.832;16.838;2023-03-02T14:48:41;6.20;94.10
32366;DHT22;18837;46.832;16.838;2023-03-02T14:51:27;6.20;94.20
32366;DHT22;18837;46.832;16.838;2023-03-02T14:53:56;6.20;93.90
32366;DHT22;18837;46.832;16.838;2023-03-02T14:56:23;6.20;94.10
32366;DHT22;18837;46.832;16.838;2023-03-02T14:58:51;6.20;94.10
32366;DHT22;18837;46.832;16.838;2023-03-02T15:01:17;6.20;94.10
32366;DHT22;18837;46.832;16.838;2023-03-02T15:03:43;6.20;94.40
32366;DHT22;18837;46.832;16.838;2023-03-02T15:06:44;6.20;94.40
32366;DHT22;18837;46.832;16.838;2023-03-02T15:09:30;6.30;94.20
32366;DHT22;18837;46.832;16.838;2023-03-02T15:11:55;6.30;95.10
32366;DHT22;18837;46.832;16.838;2023-03-02T15:14:21;6.30;94.30
32366;DHT22;18837;46.832;16.838;2023-03-02T15:16:46;6.30;94.20
32366;DHT22;18837;46.832;16.838;2023-03-02T15:19:12;6.20;94.20
32366;DHT22;18837;46.832;16.838;2023-03-02T15:21:38;6.20;94.10
32366;DHT22;18837;46.832;16.838;2023-03-02T15:24:09;6.20;94.00
32366;DHT22;18837;46.832;16.838;2023-03-02T15:26:44;6.20;94.00
32366;DHT22;18837;46.832;16.838;2023-03-02T15:29:10;6.20;94.00
32366;DHT22;18837;46.832;16.838;2023-03-02T15:31:35;6.20;94.20
32366;DHT22;18837;46.832;16.838;2023-03-02T15:34:01;6.20;94.10
32366;DHT22;18837;46.832;16.838;2023-03-02T15:36:27;6.20;94.20
32366;DHT22;18837;46.832;16.838;2023-03-02T15:38:52;6.20;94.20
32366;DHT22;18837;46.832;16.838;2023-03-02T15:41:37;6.20;94.10
32366;DHT22;18837;46.832;16.838;2023-03-02T15:44:22;6.20;94.10
32366;DHT22;18837;46.832;16.838;2023-03-02T15:46:56;6.20;94.00
32366;DHT22;18837;46.832;16.838;2023-03-02T15:49:22;6.10;94.00
32366;DHT22;18837;46.832;16.838;2023-03-02T15:51:52;6.10;94.20
32366;DHT22;18837;46.832;16.838;2023-03-02T15:54:20;6.10;94.20
32366;DHT22;18837;46.832;16.838;2023-03-02T15:56:46;6.40;94.30
32366;DHT22;18837;46.832;16.838;2023-03-02T15:59:25;6.20;94.30
32366;DHT22;18837;46.832;16.838;2023-03-02T16:01:52;6.10;94.20
32366;DHT22;18837;46.832;16.838;2023-03-02T16:04:18;6.10;94.20
32366;DHT22;18837;46.832;16.838;2023-03-02T16:06:44;6.10;94.10
32366;DHT22;18837;46.832;16.838;2023-03-02T16:09:10;6.10;94.20
32366;DHT22;18837;46.832;16.838;2023-03-02T16:11:36;6.10;94.20
32366;DHT22;18837;46.832;16.838;2023-03-02T16:14:07;6.10;94.20
32366;DHT22;18837;46.832;16.838;2023-03-02T16:16:52;6.10;94.20
32366;DHT22;18837;46.832;16.838;2023-03-02T16:19:29;6.10;94.10
32366;DHT22;18837;46.832;16.838;2023-03-02T16:21:56;6.10;94.20
32366;DHT22;18837;46.832;16.838;2023-03-02T16:24:22;6.10;94.20
32366;DHT22;18837;46.832;16.838;2023-03-02T16:26:51;6.00;94.20
32366;DHT22;18837;46.832;16.838;2023-03-02T16:29:16;6.10;94.40
32366;DHT22;18837;46.832;16.838;2023-03-02T16:31:45;6.10;94.50
32366;DHT22;18837;46.832;16.838;2023-03-02T16:34:13;6.10;94.40
32366;DHT22;18837;46.832;16.838;2023-03-02T16:36:40;6.20;94.30
32366;DHT22;18837;46.832;16.838;2023-03-02T16:39:07;6.20;94.50
32366;DHT22;18837;46.832;16.838;2023-03-02T16:41:34;6.20;94.30
32366;DHT22;18837;46.832;16.838;2023-03-02T16:44:01;6.20;94.20
32366;DHT22;18837;46.832;16.838;2023-03-02T16:46:30;6.20;94.20
32366;DHT22;18837;46.832;16.838;2023-03-02T16:49:05;6.30;94.00
32366;DHT22;18837;46.832;16.838;2023-03-02T16:51:50;6.30;94.20
32366;DHT22;18837;46.832;16.838;2023-03-02T16:54:31;6.30;93.90
32366;DHT22;18837;46.832;16.838;2023-03-02T16:56:57;6.30;94.20
32366;DHT22;18837;46.832;16.838;2023-03-02T16:59:23;6.30;94.20
32366;DHT22;18837;46.832;16.838;2023-03-02T17:01:49;6.20;94.20
32366;DHT22;18837;46.832;16.838;2023-03-02T17:04:14;6.30;94.00
32366;DHT22;18837;46.832;16.838;2023-03-02T17:06:44;6.20;94.20
32366;DHT22;18837;46.832;16.838;2023-03-02T17:09:15;6.20;94.00
32366;DHT22;18837;46.832;16.838;2023-03-02T17:11:41;6.20;94.10
32366;DHT22;18837;46.832;16.838;2023-03-02T17:14:07;6.20;94.40
32366;DHT22;18837;46.832;16.838;2023-03-02T17:16:33;6.20;94.40
32366;DHT22;18837;46.832;16.838;2023-03-02T17:18:59;6.20;94.30
32366;DHT22;18837;46.832;16.838;2023-03-02T17:21:24;6.20;94.40
32366;DHT22;18837;46.832;16.838;2023-03-02T17:23:50;6.20;94.40
32366;DHT22;18837;46.832;16.838;2023-03-02T17:26:41;6.20;94.40
32366;DHT22;18837;46.832;16.838;2023-03-02T17:29:12;6.20;95.10